createdAt,value
2023-05-02T00:00:01.786Z,6.47
2023-05-02T00:02:29.831Z,7.00
2023-05-02T00:04:57.364Z,6.70
2023-05-02T00:07:26.664Z,6.80
2023-05-02T00:09:54.013Z,6.97
2023-05-02T00:12:21.366Z,6.50
2023-05-02T00:14:48.737Z,6.15
2023-05-02T00:17:20.577Z,6.82
2023-05-02T00:19:48.292Z,5.97
2023-05-02T00:22:15.588Z,6.78
2023-05-02T00:24:42.864Z,6.10
2023-05-02T00:27:10.126Z,6.40
2023-05-02T00:29:37.446Z,6.07
2023-05-02T00:32:05.682Z,5.63
2023-05-02T00:34:33.040Z,6.72
2023-05-02T00:37:00.347Z,5.85
2023-05-02T00:39:27.638Z,5.78
2023-05-02T00:41:59.142Z,5.78
2023-05-02T00:44:26.592Z,5.15
2023-05-02T00:46:58.421Z,6.80
2023-05-02T00:49:25.778Z,5.07
2023-05-02T00:51:54.434Z,5.22
2023-05-02T00:54:21.982Z,5.22
2023-05-02T00:56:49.318Z,5.43
2023-05-02T00:59:17.972Z,4.80
2023-05-02T01:02:04.105Z,4.20
2023-05-02T01:04:58.390Z,4.45
2023-05-02T01:07:45.587Z,5.68
2023-05-02T01:10:44.826Z,4.20
2023-05-02T01:13:22.086Z,4.13
2023-05-02T01:15:52.931Z,4.43
2023-05-02T01:18:26.754Z,3.90
2023-05-02T01:20:59.138Z,4.40
2023-05-02T01:23:59.693Z,4.18
2023-05-02T01:26:49.501Z,3.72
2023-05-02T01:29:18.368Z,3.80
2023-05-02T01:31:50.534Z,3.10
2023-05-02T01:34:21.433Z,3.30
2023-05-02T01:36:52.328Z,3.90
2023-05-02T01:39:25.989Z,4.07
2023-05-02T01:41:57.065Z,2.83
2023-05-02T01:44:27.110Z,4.53
2023-05-02T01:46:56.386Z,3.05
2023-05-02T01:49:26.877Z,4.60
2023-05-02T01:51:54.720Z,3.72
2023-05-02T01:54:25.843Z,4.13
2023-05-02T01:56:53.298Z,3.88
2023-05-02T01:59:22.692Z,3.75
2023-05-02T02:01:52.266Z,2.60
2023-05-02T02:04:22.190Z,2.55
2023-05-02T02:06:55.596Z,2.75
2023-05-02T02:09:22.927Z,2.65
2023-05-02T02:11:57.568Z,2.75
2023-05-02T02:14:37.850Z,2.45
2023-05-02T02:17:22.240Z,2.75
2023-05-02T02:19:51.089Z,3.72
2023-05-02T02:22:20.077Z,3.03
2023-05-02T02:24:48.549Z,2.10
2023-05-02T02:27:16.352Z,5.00
2023-05-02T02:29:44.255Z,2.85
2023-05-02T02:32:11.486Z,2.67
2023-05-02T02:34:38.786Z,2.20
2023-05-02T02:37:20.614Z,2.65
2023-05-02T02:40:20.696Z,3.05
2023-05-02T02:42:57.555Z,3.40
2023-05-02T02:45:24.828Z,2.55
2023-05-02T02:48:19.398Z,2.63
2023-05-02T02:51:09.153Z,1.52
2023-05-02T02:53:51.717Z,2.88
2023-05-02T02:56:28.439Z,3.28
2023-05-02T02:59:10.746Z,2.45
2023-05-02T03:01:44.062Z,2.97
2023-05-02T03:04:13.605Z,2.47
2023-05-02T03:06:41.232Z,3.47
2023-05-02T03:09:18.669Z,2.97
2023-05-02T03:11:46.225Z,2.65
2023-05-02T03:14:13.506Z,2.85
2023-05-02T03:16:42.170Z,2.88
2023-05-02T03:19:09.764Z,3.55
2023-05-02T03:21:37.949Z,2.55
2023-05-02T03:24:05.673Z,3.05
2023-05-02T03:26:33.051Z,2.47
2023-05-02T03:29:00.673Z,2.15
2023-05-02T03:31:28.082Z,2.20
2023-05-02T03:33:55.427Z,1.55
2023-05-02T03:36:22.738Z,2.25
2023-05-02T03:38:50.090Z,2.80
2023-05-02T03:41:17.579Z,2.85
2023-05-02T03:43:44.840Z,2.80
2023-05-02T03:46:12.212Z,2.28
2023-05-02T03:48:39.651Z,1.85
2023-05-02T03:51:10.169Z,1.25
2023-05-02T03:53:37.630Z,1.67
2023-05-02T03:56:05.220Z,1.52
2023-05-02T03:58:32.550Z,2.92
2023-05-02T04:00:59.843Z,1.15
2023-05-02T04:03:29.739Z,2.25
2023-05-02T04:05:57.315Z,2.65
2023-05-02T04:08:24.600Z,1.55
2023-05-02T04:10:53.025Z,2.20
2023-05-02T04:13:20.337Z,3.40
2023-05-02T04:15:47.628Z,2.42
2023-05-02T04:18:14.992Z,2.25
2023-05-02T04:20:45.314Z,2.95
2023-05-02T04:23:12.574Z,1.33
2023-05-02T04:25:39.839Z,1.50
2023-05-02T04:28:07.112Z,2.22
2023-05-02T04:30:34.421Z,1.40
2023-05-02T04:33:02.099Z,2.60
2023-05-02T04:35:29.431Z,2.65
2023-05-02T04:37:56.987Z,1.90
2023-05-02T04:40:24.271Z,2.53
2023-05-02T04:42:51.611Z,4.25
2023-05-02T04:45:18.986Z,2.55
2023-05-02T04:47:46.279Z,3.33
2023-05-02T04:50:13.721Z,2.72
2023-05-02T04:52:41.077Z,3.33
2023-05-02T04:55:08.727Z,2.10
2023-05-02T04:57:36.059Z,2.60
2023-05-02T05:00:03.639Z,2.22
2023-05-02T05:02:31.267Z,4.82
2023-05-02T05:05:01.786Z,2.38
2023-05-02T05:07:29.098Z,2.42
2023-05-02T05:09:56.404Z,3.33
2023-05-02T05:12:23.735Z,3.13
2023-05-02T05:14:51.109Z,4.03
2023-05-02T05:17:18.504Z,2.63
2023-05-02T05:19:45.774Z,2.38
2023-05-02T05:22:13.070Z,3.33
2023-05-02T05:24:40.656Z,2.63
2023-05-02T05:27:07.967Z,4.30
2023-05-02T05:29:35.292Z,2.47
2023-05-02T05:32:02.667Z,2.05
2023-05-02T05:34:29.977Z,3.70
2023-05-02T05:36:57.620Z,3.95
2023-05-02T05:39:25.579Z,3.20
2023-05-02T05:41:52.943Z,2.40
2023-05-02T05:44:22.089Z,3.53
2023-05-02T05:46:49.461Z,2.67
2023-05-02T05:49:17.666Z,4.10
2023-05-02T05:51:44.934Z,3.15
2023-05-02T05:54:12.316Z,3.35
2023-05-02T05:56:39.581Z,2.42
2023-05-02T05:59:06.843Z,3.83
2023-05-02T06:01:35.803Z,3.28
2023-05-02T06:04:03.272Z,3.33
2023-05-02T06:06:31.989Z,2.35
2023-05-02T06:09:00.051Z,3.78
2023-05-02T06:11:27.641Z,2.70
2023-05-02T06:13:55.040Z,4.68
2023-05-02T06:16:22.457Z,2.10
2023-05-02T06:18:52.737Z,2.42
2023-05-02T06:21:20.097Z,2.33
2023-05-02T06:23:47.470Z,3.22
2023-05-02T06:26:15.093Z,2.90
2023-05-02T06:28:42.587Z,1.42
2023-05-02T06:31:10.189Z,3.13
2023-05-02T06:33:37.878Z,3.03
2023-05-02T06:36:05.292Z,2.75
2023-05-02T06:38:32.978Z,2.58
2023-05-02T06:41:00.296Z,4.43
2023-05-02T06:43:28.310Z,2.40
2023-05-02T06:45:59.193Z,3.40
2023-05-02T06:48:26.460Z,2.60
2023-05-02T06:50:56.635Z,2.10
2023-05-02T06:53:23.962Z,3.25
2023-05-02T06:55:51.383Z,2.15
2023-05-02T06:58:18.766Z,1.98
2023-05-02T07:00:46.227Z,2.47
2023-05-02T07:03:13.683Z,3.47
2023-05-02T07:05:41.429Z,2.67
2023-05-02T07:08:09.298Z,2.33
2023-05-02T07:10:36.757Z,2.75
2023-05-02T07:13:04.053Z,2.63
2023-05-02T07:15:31.482Z,2.83
2023-05-02T07:17:58.829Z,2.30
2023-05-02T07:20:26.283Z,2.47
2023-05-02T07:22:53.854Z,2.92
2023-05-02T07:25:21.244Z,1.83
2023-05-02T07:27:48.660Z,2.75
2023-05-02T07:30:15.939Z,3.97
2023-05-02T07:32:43.315Z,1.98
2023-05-02T07:35:10.633Z,2.63
2023-05-02T07:37:38.077Z,3.42
2023-05-02T07:40:07.467Z,1.73
2023-05-02T07:42:34.970Z,2.03
2023-05-02T07:45:02.642Z,3.17
2023-05-02T07:47:30.336Z,2.25
2023-05-02T07:49:57.958Z,3.65
2023-05-02T07:52:26.098Z,2.83
2023-05-02T07:54:53.414Z,2.45
2023-05-02T07:57:20.690Z,3.25
2023-05-02T07:59:48.109Z,2.13
2023-05-02T08:02:17.615Z,2.17
2023-05-02T08:04:45.008Z,4.20
2023-05-02T08:07:12.286Z,3.30
2023-05-02T08:09:39.652Z,2.70
2023-05-02T08:12:06.933Z,3.15
2023-05-02T08:14:34.421Z,2.83
2023-05-02T08:17:01.693Z,2.25
2023-05-02T08:19:29.039Z,3.97
2023-05-02T08:21:56.347Z,3.45
2023-05-02T08:24:23.823Z,1.85
2023-05-02T08:26:51.119Z,3.10
2023-05-02T08:29:18.401Z,2.22
2023-05-02T08:31:45.846Z,3.10
2023-05-02T08:34:13.208Z,4.05
2023-05-02T08:36:40.540Z,2.47
2023-05-02T08:39:09.280Z,2.75
2023-05-02T08:41:36.626Z,3.13
2023-05-02T08:44:04.290Z,2.03
2023-05-02T08:46:35.500Z,4.32
2023-05-02T08:49:05.268Z,2.47
2023-05-02T08:51:33.501Z,1.92
2023-05-02T08:54:02.051Z,3.90
2023-05-02T08:56:29.373Z,3.85
2023-05-02T08:58:56.645Z,1.48
2023-05-02T09:01:28.983Z,2.65
2023-05-02T09:03:58.458Z,5.00
2023-05-02T09:06:29.328Z,1.77
2023-05-02T09:09:00.974Z,1.80
2023-05-02T09:11:29.175Z,1.92
2023-05-02T09:13:58.860Z,2.50
2023-05-02T09:16:27.268Z,2.63
2023-05-02T09:18:58.717Z,2.63
2023-05-02T09:21:37.253Z,2.38
2023-05-02T09:24:18.177Z,1.92
2023-05-02T09:26:57.340Z,1.88
2023-05-02T09:29:25.128Z,4.05
2023-05-02T09:31:56.379Z,2.75
2023-05-02T09:34:24.535Z,2.10
2023-05-02T09:36:54.465Z,3.53
2023-05-02T09:39:29.183Z,2.13
2023-05-02T09:41:57.386Z,3.92
2023-05-02T09:44:27.467Z,3.15
2023-05-02T09:46:57.552Z,3.10
2023-05-02T09:50:00.115Z,1.98
2023-05-02T09:52:27.417Z,2.08
2023-05-02T09:54:56.468Z,2.95
2023-05-02T09:57:39.787Z,2.88
2023-05-02T10:00:09.020Z,2.65
2023-05-02T10:02:37.804Z,2.55
2023-05-02T10:05:10.651Z,2.00
2023-05-02T10:07:39.082Z,1.77
2023-05-02T10:10:08.673Z,1.95
2023-05-02T10:12:38.804Z,2.60
2023-05-02T10:15:10.030Z,2.25
2023-05-02T10:17:43.415Z,2.38
2023-05-02T10:20:16.402Z,2.30
2023-05-02T10:22:46.038Z,2.13
2023-05-02T10:25:13.875Z,2.85
2023-05-02T10:27:41.913Z,2.30
2023-05-02T10:30:10.592Z,4.07
2023-05-02T10:32:39.225Z,2.20
2023-05-02T10:35:08.366Z,2.88
2023-05-02T10:37:38.466Z,1.90
2023-05-02T10:40:09.885Z,2.08
2023-05-02T10:42:46.220Z,2.47
2023-05-02T10:45:34.610Z,2.55
2023-05-02T10:48:23.456Z,1.48
2023-05-02T10:51:01.973Z,5.55
2023-05-02T10:53:34.031Z,2.28
2023-05-02T10:56:27.795Z,2.78
2023-05-02T10:59:35.216Z,1.55
2023-05-02T11:02:04.012Z,2.85
2023-05-02T11:05:03.302Z,1.40
2023-05-02T11:07:32.262Z,2.67
2023-05-02T11:10:17.579Z,1.90
2023-05-02T11:12:51.758Z,2.80
2023-05-02T11:15:28.103Z,1.88
2023-05-02T11:18:08.948Z,2.80
2023-05-02T11:20:39.538Z,2.10
2023-05-02T11:23:16.428Z,3.15
2023-05-02T11:25:57.491Z,2.15
2023-05-02T11:28:43.531Z,2.38
2023-05-02T11:31:31.048Z,2.72
2023-05-02T11:33:59.022Z,1.98
2023-05-02T11:36:30.392Z,1.92
2023-05-02T11:38:57.718Z,1.77
2023-05-02T11:41:39.837Z,3.28
2023-05-02T11:44:07.386Z,3.33
2023-05-02T11:46:37.913Z,1.38
2023-05-02T11:49:07.010Z,3.30
2023-05-02T11:51:36.502Z,3.05
2023-05-02T11:54:04.041Z,2.08
2023-05-02T11:56:31.635Z,3.58
2023-05-02T11:59:01.043Z,2.50
2023-05-02T12:01:28.948Z,2.10
2023-05-02T12:04:10.421Z,1.65
2023-05-02T12:06:37.847Z,1.88
2023-05-02T12:09:09.971Z,1.85
2023-05-02T12:11:38.385Z,2.80
2023-05-02T12:14:06.839Z,2.00
2023-05-02T12:16:34.885Z,3.35
2023-05-02T12:19:02.475Z,1.65
2023-05-02T12:21:30.427Z,2.60
2023-05-02T12:23:58.869Z,3.13
2023-05-02T12:26:30.847Z,4.90
2023-05-02T12:28:59.025Z,2.78
2023-05-02T12:31:29.000Z,2.85
2023-05-02T12:34:01.099Z,1.98
2023-05-02T12:36:29.430Z,2.42
2023-05-02T12:38:59.737Z,1.30
2023-05-02T12:41:38.484Z,2.72
2023-05-02T12:44:08.880Z,2.95
2023-05-02T12:46:36.389Z,2.17
2023-05-02T12:49:12.296Z,2.03
2023-05-02T12:51:40.934Z,2.35
2023-05-02T12:54:08.380Z,2.50
2023-05-02T12:56:43.757Z,1.55
2023-05-02T12:59:29.043Z,3.70
2023-05-02T13:01:57.323Z,3.05
2023-05-02T13:04:38.857Z,1.80
2023-05-02T13:07:06.267Z,2.50
2023-05-02T13:09:33.560Z,1.90
2023-05-02T13:12:03.761Z,2.72
2023-05-02T13:14:31.423Z,2.60
2023-05-02T13:16:59.378Z,2.55
2023-05-02T13:19:30.996Z,2.67
2023-05-02T13:21:58.366Z,2.28
2023-05-02T13:24:25.797Z,2.70
2023-05-02T13:26:53.029Z,1.80
2023-05-02T13:29:20.400Z,2.70
2023-05-02T13:31:47.670Z,2.13
2023-05-02T13:34:14.882Z,3.00
2023-05-02T13:36:46.404Z,2.75
2023-05-02T13:39:14.101Z,2.38
2023-05-02T13:41:41.596Z,2.30
2023-05-02T13:44:09.522Z,2.33
2023-05-02T13:46:37.897Z,2.22
2023-05-02T13:49:05.694Z,2.60
2023-05-02T13:51:33.503Z,2.70
2023-05-02T13:54:01.334Z,2.42
2023-05-02T13:56:28.906Z,2.47
2023-05-02T13:58:56.431Z,3.42
2023-05-02T14:01:24.121Z,2.28
2023-05-02T14:03:51.647Z,2.55
2023-05-02T14:06:19.056Z,3.03
2023-05-02T14:08:46.488Z,1.75
2023-05-02T14:11:13.748Z,2.17
2023-05-02T14:13:41.367Z,2.08
2023-05-02T14:16:08.751Z,3.40
2023-05-02T14:18:36.216Z,2.40
2023-05-02T14:21:04.318Z,1.75
2023-05-02T14:23:31.733Z,2.80
2023-05-02T14:25:58.996Z,2.63
2023-05-02T14:28:27.116Z,2.70
2023-05-02T14:30:54.486Z,1.88
2023-05-02T14:33:21.737Z,2.58
2023-05-02T14:35:49.585Z,1.73
2023-05-02T14:38:17.029Z,2.22
2023-05-02T14:40:44.372Z,2.50
2023-05-02T14:43:13.288Z,2.15
2023-05-02T14:45:40.765Z,2.70
2023-05-02T14:48:08.880Z,3.45
2023-05-02T14:50:39.586Z,2.40
2023-05-02T14:53:07.196Z,2.92
2023-05-02T14:55:38.897Z,2.25
2023-05-02T14:58:10.395Z,3.20
2023-05-02T15:00:38.685Z,2.35
2023-05-02T15:03:08.058Z,3.45
2023-05-02T15:05:36.909Z,2.65
2023-05-02T15:08:04.596Z,2.22
2023-05-02T15:10:34.713Z,3.72
2023-05-02T15:13:03.856Z,2.38
2023-05-02T15:15:31.210Z,2.72
2023-05-02T15:17:58.601Z,3.33
2023-05-02T15:20:26.212Z,4.00
2023-05-02T15:22:53.492Z,3.65
2023-05-02T15:25:20.947Z,2.10
2023-05-02T15:27:48.250Z,3.78
2023-05-02T15:30:17.721Z,2.67
2023-05-02T15:32:45.393Z,3.38
2023-05-02T15:35:12.739Z,2.95
2023-05-02T15:37:40.127Z,3.17
2023-05-02T15:40:08.307Z,3.05
2023-05-02T15:42:37.153Z,3.25
2023-05-02T15:45:05.092Z,3.88
2023-05-02T15:47:32.527Z,4.13
2023-05-02T15:50:00.681Z,4.38
2023-05-02T15:52:28.330Z,2.33
2023-05-02T15:54:56.174Z,2.50
2023-05-02T15:57:23.585Z,2.72
2023-05-02T15:59:50.938Z,2.78
2023-05-02T16:02:19.143Z,2.95
2023-05-02T16:04:46.601Z,3.72
2023-05-02T16:07:13.981Z,2.92
2023-05-02T16:09:42.456Z,4.47
2023-05-02T16:12:09.840Z,3.25
2023-05-02T16:14:37.182Z,4.78
2023-05-02T16:17:04.670Z,4.45
2023-05-02T16:19:32.088Z,8.30
2023-05-02T16:21:59.387Z,4.45
2023-05-02T16:24:26.625Z,4.43
2023-05-02T16:26:53.966Z,4.90
2023-05-02T16:29:21.280Z,5.22
2023-05-02T16:31:48.599Z,6.55
2023-05-02T16:34:16.084Z,6.32
2023-05-02T16:36:43.455Z,6.68
2023-05-02T16:39:10.875Z,7.55
2023-05-02T16:41:38.244Z,6.57
2023-05-02T16:44:05.769Z,6.38
2023-05-02T16:46:33.348Z,5.70
2023-05-02T16:49:00.725Z,6.93
2023-05-02T16:51:28.152Z,7.47
2023-05-02T16:53:55.679Z,5.57
2023-05-02T16:56:22.929Z,8.55
2023-05-02T16:58:50.251Z,7.43
2023-05-02T17:01:17.673Z,6.63
2023-05-02T17:03:44.970Z,5.47
2023-05-02T17:06:12.327Z,6.47
2023-05-02T17:08:39.719Z,7.25
2023-05-02T17:11:07.960Z,6.07
2023-05-02T17:13:35.478Z,6.13
2023-05-02T17:16:03.455Z,5.28
2023-05-02T17:18:30.729Z,6.60
2023-05-02T17:20:58.088Z,5.82
2023-05-02T17:23:27.798Z,6.07
2023-05-02T17:25:55.103Z,5.38
2023-05-02T17:28:22.445Z,5.65
2023-05-02T17:30:54.382Z,6.13
2023-05-02T17:33:22.375Z,5.40
2023-05-02T17:35:49.616Z,5.70
2023-05-02T17:38:16.926Z,6.25
2023-05-02T17:40:44.368Z,4.47
2023-05-02T17:43:11.677Z,6.30
2023-05-02T17:45:41.118Z,7.00
2023-05-02T17:48:08.691Z,5.75
2023-05-02T17:50:40.317Z,6.10
2023-05-02T17:53:08.283Z,5.60
2023-05-02T17:55:38.948Z,6.85
2023-05-02T17:58:06.281Z,9.05
2023-05-02T18:00:33.902Z,6.60
2023-05-02T18:03:02.013Z,5.72
2023-05-02T18:05:29.475Z,5.95
2023-05-02T18:07:58.798Z,4.65
2023-05-02T18:10:26.161Z,4.72
2023-05-02T18:12:53.447Z,4.78
2023-05-02T18:15:20.999Z,5.95
2023-05-02T18:17:48.353Z,3.65
2023-05-02T18:20:15.703Z,4.82
2023-05-02T18:22:42.943Z,3.58
2023-05-02T18:25:10.335Z,4.50
2023-05-02T18:27:37.596Z,4.35
2023-05-02T18:30:05.823Z,4.13
2023-05-02T18:32:36.021Z,3.65
2023-05-02T18:35:04.325Z,4.30
2023-05-02T18:37:31.937Z,3.40
2023-05-02T18:39:59.571Z,2.78
2023-05-02T18:42:27.445Z,4.38
2023-05-02T18:44:54.789Z,4.63
2023-05-02T18:47:22.136Z,4.82
2023-05-02T18:49:50.440Z,4.13
2023-05-02T18:52:17.721Z,4.47
2023-05-02T18:54:44.986Z,4.22
2023-05-02T18:57:12.729Z,4.30
2023-05-02T18:59:39.988Z,4.75
2023-05-02T19:02:07.691Z,2.90
2023-05-02T19:04:34.938Z,3.30
2023-05-02T19:07:02.218Z,3.85
2023-05-02T19:09:29.448Z,3.63
2023-05-02T19:11:56.715Z,4.82
2023-05-02T19:14:24.066Z,3.25
2023-05-02T19:16:51.278Z,3.15
2023-05-02T19:19:18.727Z,2.67
2023-05-02T19:21:48.036Z,3.47
2023-05-02T19:24:15.536Z,3.30
2023-05-02T19:26:42.837Z,3.35
2023-05-02T19:29:10.145Z,2.35
2023-05-02T19:31:38.853Z,3.70
2023-05-02T19:34:06.371Z,4.03
2023-05-02T19:36:33.662Z,3.97
2023-05-02T19:39:00.988Z,3.45
2023-05-02T19:41:28.321Z,3.95
2023-05-02T19:43:59.864Z,2.78
2023-05-02T19:46:27.337Z,3.08
2023-05-02T19:48:54.581Z,2.85
2023-05-02T19:51:25.368Z,2.58
2023-05-02T19:53:53.901Z,3.00
2023-05-02T19:56:21.691Z,3.92
2023-05-02T19:58:48.940Z,2.63
2023-05-02T20:01:16.363Z,3.33
2023-05-02T20:03:43.871Z,2.88
2023-05-02T20:06:11.268Z,3.42
2023-05-02T20:08:38.592Z,3.50
2023-05-02T20:11:06.178Z,2.95
2023-05-02T20:13:33.526Z,3.75
2023-05-02T20:16:01.137Z,3.10
2023-05-02T20:18:28.494Z,1.85
2023-05-02T20:20:56.582Z,3.67
2023-05-02T20:23:25.347Z,2.70
2023-05-02T20:25:52.681Z,2.30
2023-05-02T20:28:19.969Z,2.38
2023-05-02T20:30:47.257Z,3.20
2023-05-02T20:33:16.665Z,3.47
2023-05-02T20:35:45.301Z,2.33
2023-05-02T20:38:12.869Z,2.63
2023-05-02T20:40:42.746Z,2.55
2023-05-02T20:43:11.758Z,2.92
2023-05-02T20:45:40.112Z,2.95
2023-05-02T20:48:07.724Z,2.53
2023-05-02T20:50:35.054Z,2.38
2023-05-02T20:53:02.411Z,2.10
2023-05-02T20:55:29.657Z,2.70
2023-05-02T20:57:56.991Z,1.50
2023-05-02T21:00:24.439Z,2.40
2023-05-02T21:02:51.798Z,2.10
2023-05-02T21:05:19.148Z,3.05
2023-05-02T21:07:46.545Z,2.83
2023-05-02T21:10:14.973Z,1.50
2023-05-02T21:12:42.269Z,2.38
2023-05-02T21:15:09.737Z,3.45
2023-05-02T21:17:40.856Z,2.63
2023-05-02T21:20:10.202Z,2.92
2023-05-02T21:22:37.433Z,1.95
2023-05-02T21:25:04.978Z,2.40
2023-05-02T21:27:32.279Z,2.05
2023-05-02T21:29:59.641Z,2.72
2023-05-02T21:32:27.072Z,1.70
2023-05-02T21:34:54.367Z,1.98
2023-05-02T21:37:22.398Z,1.38
2023-05-02T21:39:49.754Z,2.15
2023-05-02T21:42:17.064Z,2.22
2023-05-02T21:44:44.276Z,3.00
2023-05-02T21:47:11.598Z,2.95
2023-05-02T21:49:38.902Z,1.92
2023-05-02T21:52:06.166Z,1.30
2023-05-02T21:54:33.603Z,2.30
2023-05-02T21:57:02.663Z,1.67
2023-05-02T21:59:29.899Z,2.03
2023-05-02T22:01:57.708Z,2.13
2023-05-02T22:04:25.266Z,2.03
2023-05-02T22:06:53.410Z,1.42
2023-05-02T22:09:22.002Z,1.73
2023-05-02T22:11:49.235Z,1.48
2023-05-02T22:14:16.527Z,1.80
2023-05-02T22:16:43.833Z,3.42
2023-05-02T22:19:11.955Z,1.70
2023-05-02T22:21:39.189Z,1.75
2023-05-02T22:24:06.715Z,1.83
2023-05-02T22:26:33.971Z,2.90
2023-05-02T22:29:01.272Z,1.42
2023-05-02T22:31:28.649Z,1.73
2023-05-02T22:33:55.994Z,1.48
2023-05-02T22:36:23.288Z,1.67
2023-05-02T22:38:50.569Z,1.73
2023-05-02T22:41:17.860Z,1.70
2023-05-02T22:43:45.451Z,1.38
2023-05-02T22:46:12.772Z,1.92
2023-05-02T22:48:40.084Z,2.78
2023-05-02T22:51:07.456Z,2.03
2023-05-02T22:53:35.298Z,2.15
2023-05-02T22:56:03.056Z,1.80
2023-05-02T22:58:30.364Z,2.50
2023-05-02T23:00:57.729Z,1.60
2023-05-02T23:03:25.067Z,1.60
2023-05-02T23:05:52.437Z,1.50
2023-05-02T23:08:19.737Z,2.63
2023-05-02T23:10:47.321Z,1.88
2023-05-02T23:13:14.658Z,2.25
2023-05-02T23:15:42.128Z,1.92
2023-05-02T23:18:09.624Z,1.88
2023-05-02T23:20:36.952Z,1.33
2023-05-02T23:23:04.884Z,1.48
2023-05-02T23:25:33.526Z,1.63
2023-05-02T23:28:00.810Z,2.17
2023-05-02T23:30:29.504Z,1.55
2023-05-02T23:32:57.022Z,1.98
2023-05-02T23:35:24.680Z,2.03
2023-05-02T23:37:52.691Z,1.50
2023-05-02T23:40:31.598Z,1.95
2023-05-02T23:42:59.098Z,2.85
2023-05-02T23:45:26.442Z,1.63
2023-05-02T23:47:53.705Z,2.17
2023-05-02T23:50:21.031Z,1.60
2023-05-02T23:52:48.260Z,1.70
2023-05-02T23:55:15.719Z,2.75
2023-05-02T23:57:42.991Z,2.65
